San Ramon de la Nueva Oran, Argentina
Current Conditions -  °F | °C
As of 1:00 PM on Thursday 30 Oct 2014 (Local Time) from SLYA Reporting Station
Overcast Overcast  
Wind Chill: 82°   Ceiling: 2700
Heat Index: 87°   Visibility: 6mi
Dew Point: 72°   Wind: 14mph
Humidity: 70%   Direction: 180°S
Pressure: 29.77"   Gusts: NA
Location:  23.13°S, 64.33°W
Report Text: SLYA 301600Z 18012KT 9999 BKN027 OVC070 28/22 Q1008
Loading
Personal Weather Stations






























Interactive Weather Map New forecast layout! Learn more

10-Day Weather Forecast

Advertisements
Track Severe Weather on mobile